Time;durP1;ratioP1;P1;durP2;ratioP2;P2;SDS_P1;SDS_P2;PMS_P1;PMS_P2;Temp;Humidity;BMP_temperature;BMP_pressure;BME280_temperature;BME280_humidity;BME280_pressure;Samples;Min_cycle;Max_cycle;Signal;HPM_P1;HPM_P2
2023/07/13 00:01:27;;;;;;;2.23;1.30;;;19.10;99.90;;;;;;4975393;28;20183;-88
2023/07/13 00:03:57;;;;;;;3.27;0.73;;;19.10;99.90;;;;;;4976660;28;20425;-85
2023/07/13 00:06:22;;;;;;;2.13;0.90;;;19.00;99.90;;;;;;4975251;28;20435;-89
2023/07/13 00:08:48;;;;;;;1.37;0.50;;;18.90;99.90;;;;;;4976738;28;20412;-89
2023/07/13 00:11:15;;;;;;;3.13;1.00;;;18.90;99.90;;;;;;4976456;28;20274;-91
2023/07/13 00:13:41;;;;;;;4.47;1.67;;;18.80;99.90;;;;;;4975210;28;20420;-88
2023/07/13 00:16:08;;;;;;;5.23;1.87;;;18.70;99.90;;;;;;4976299;28;20481;-90
2023/07/13 00:18:34;;;;;;;2.30;0.53;;;18.60;99.90;;;;;;4976548;28;20466;-85
2023/07/13 00:21:05;;;;;;;3.70;0.67;;;18.60;99.90;;;;;;4975998;28;20908;-84
2023/07/13 00:23:42;;;;;;;1.93;0.83;;;18.50;99.90;;;;;;4976743;28;20253;-90
2023/07/13 00:26:10;;;;;;;2.37;1.20;;;18.50;99.90;;;;;;4976395;28;20418;-84
2023/07/13 00:28:37;;;;;;;7.60;1.07;;;18.40;99.90;;;;;;4974730;28;20436;-90
2023/07/13 00:31:02;;;;;;;8.60;3.77;;;18.30;99.90;;;;;;4976230;28;20955;-90
2023/07/13 00:33:29;;;;;;;4.27;1.83;;;18.30;99.90;;;;;;4976286;28;20424;-90
2023/07/13 00:35:55;;;;;;;6.50;2.00;;;18.30;99.90;;;;;;4974407;28;20218;-90
2023/07/13 00:38:22;;;;;;;3.10;1.23;;;18.30;99.90;;;;;;4976074;28;20927;-84
2023/07/13 00:40:47;;;;;;;3.50;2.30;;;18.20;99.90;;;;;;4974940;28;20513;-83
2023/07/13 00:43:22;;;;;;;3.10;1.00;;;18.30;99.90;;;;;;4974442;28;20456;-86
2023/07/13 00:45:48;;;;;;;3.90;2.07;;;18.30;99.90;;;;;;4975750;28;20542;-87
2023/07/13 00:48:18;;;;;;;4.27;2.30;;;18.30;99.90;;;;;;4975745;28;20413;-85
2023/07/13 00:50:46;;;;;;;9.30;3.90;;;18.30;99.90;;;;;;4973287;28;20268;-85
2023/07/13 00:53:12;;;;;;;6.00;3.50;;;18.30;99.90;;;;;;4974494;28;20957;-89
2023/07/13 00:55:38;;;;;;;7.47;3.77;;;18.30;99.90;;;;;;4975511;28;20481;-88
2023/07/13 00:58:06;;;;;;;5.67;3.03;;;18.30;99.90;;;;;;4975595;28;20418;-87
2023/07/13 01:00:34;;;;;;;6.30;3.17;;;18.30;99.90;;;;;;4974125;28;20427;-89
2023/07/13 01:03:04;;;;;;;8.73;3.03;;;18.30;99.90;;;;;;4974256;28;20431;-87
2023/07/13 01:05:31;;;;;;;6.10;2.73;;;18.30;99.90;;;;;;4974090;28;20823;-90
2023/07/13 01:07:57;;;;;;;6.47;3.27;;;18.30;99.90;;;;;;5006824;28;20427;-86
2023/07/13 01:10:23;;;;;;;5.07;2.20;;;18.30;99.90;;;;;;4975137;28;20503;-90
2023/07/13 01:12:49;;;;;;;7.60;2.10;;;18.30;99.90;;;;;;4974047;28;20507;-86
2023/07/13 01:15:35;;;;;;;5.43;2.80;;;18.20;99.90;;;;;;4975030;28;20549;-85
2023/07/13 01:18:01;;;;;;;4.00;3.03;;;18.20;99.90;;;;;;4974252;28;20183;-89
2023/07/13 01:20:27;;;;;;;3.37;2.07;;;18.20;99.90;;;;;;4975064;28;20417;-90
2023/07/13 01:22:52;;;;;;;2.83;1.97;;;18.10;99.90;;;;;;4975411;28;20496;-90
2023/07/13 01:25:19;;;;;;;2.90;2.67;;;18.10;99.90;;;;;;4975249;28;20193;-91
2023/07/13 01:27:44;;;;;;;2.80;1.97;;;18.00;99.90;;;;;;4974302;28;20271;-89
2023/07/13 01:30:10;;;;;;;5.23;2.37;;;18.00;99.90;;;;;;4975255;28;20564;-90
2023/07/13 01:32:36;;;;;;;3.63;1.57;;;18.00;99.90;;;;;;4975409;28;20182;-90
2023/07/13 01:35:02;;;;;;;4.53;1.80;;;18.00;99.90;;;;;;4975196;28;20177;-91
2023/07/13 01:37:32;;;;;;;4.07;1.70;;;18.00;99.90;;;;;;4975498;28;20429;-87
2023/07/13 01:39:57;;;;;;;3.10;1.53;;;17.90;99.90;;;;;;4975458;28;20202;-91
2023/07/13 01:42:23;;;;;;;3.17;1.40;;;17.90;99.90;;;;;;4975462;28;20521;-91
2023/07/13 01:44:48;;;;;;;3.67;1.43;;;17.90;99.90;;;;;;4975313;28;20183;-84
2023/07/13 01:47:14;;;;;;;5.73;1.97;;;17.90;99.90;;;;;;4975387;28;20651;-91
2023/07/13 01:49:39;;;;;;;3.33;2.10;;;17.90;99.90;;;;;;4973805;28;20272;-92
2023/07/13 01:52:05;;;;;;;3.00;1.80;;;17.80;99.90;;;;;;4973951;28;20178;-92
2023/07/13 01:54:30;;;;;;;4.13;2.20;;;17.80;99.90;;;;;;4974128;28;20179;-91
2023/07/13 01:56:59;;;;;;;3.37;2.20;;;17.80;99.90;;;;;;4973934;28;20280;-92
2023/07/13 01:59:24;;;;;;;6.13;2.43;;;17.80;99.90;;;;;;4975346;28;20258;-87
2023/07/13 02:01:52;;;;;;;2.53;1.50;;;17.70;99.90;;;;;;4974040;28;20467;-93
2023/07/13 02:04:18;;;;;;;3.10;1.97;;;17.70;99.90;;;;;;4974892;28;20198;-92
2023/07/13 02:06:43;;;;;;;6.27;2.53;;;17.60;99.90;;;;;;4975191;28;20454;-93
2023/07/13 02:09:09;;;;;;;6.43;2.40;;;17.60;99.90;;;;;;4975279;28;20176;-92
2023/07/13 02:11:35;;;;;;;5.07;1.80;;;17.60;99.90;;;;;;4973309;28;20227;-90
2023/07/13 02:14:04;;;;;;;6.53;2.67;;;17.60;99.90;;;;;;4974666;28;20778;-90
2023/07/13 02:16:30;;;;;;;3.83;1.87;;;17.60;99.90;;;;;;4973418;28;20229;-90
2023/07/13 02:18:56;;;;;;;3.20;2.50;;;17.50;99.90;;;;;;4974457;28;20473;-88
2023/07/13 02:21:23;;;;;;;9.10;3.20;;;17.60;99.90;;;;;;4974672;28;20418;-90
2023/07/13 02:23:49;;;;;;;3.80;2.37;;;17.50;99.90;;;;;;4974773;28;20256;-90
2023/07/13 02:26:14;;;;;;;3.23;2.87;;;17.40;99.90;;;;;;4973238;28;20458;-89
2023/07/13 02:28:40;;;;;;;4.00;2.80;;;17.40;99.90;;;;;;4974917;28;20852;-90
2023/07/13 02:31:08;;;;;;;4.07;2.97;;;17.30;99.90;;;;;;4974090;28;20182;-88
2023/07/13 02:33:33;;;;;;;4.90;3.60;;;17.30;99.90;;;;;;4974338;28;20632;-86
2023/07/13 02:35:59;;;;;;;3.07;2.63;;;17.30;99.90;;;;;;4973636;28;20467;-88
2023/07/13 02:38:24;;;;;;;3.97;2.63;;;17.30;99.90;;;;;;4973076;28;20190;-87
2023/07/13 02:40:50;;;;;;;4.30;2.60;;;17.30;99.90;;;;;;4972879;28;20701;-88
2023/07/13 02:43:15;;;;;;;8.27;2.83;;;17.30;99.90;;;;;;4974137;28;20178;-87
2023/07/13 02:45:44;;;;;;;3.43;3.13;;;17.30;99.90;;;;;;4974127;28;20193;-88
2023/07/13 02:48:09;;;;;;;3.47;2.93;;;17.30;99.90;;;;;;4972769;28;20183;-88
2023/07/13 02:50:35;;;;;;;4.77;2.60;;;17.30;99.90;;;;;;4973750;28;20422;-88
2023/07/13 02:53:00;;;;;;;5.23;2.73;;;17.30;99.90;;;;;;4973021;28;20180;-86
2023/07/13 02:55:26;;;;;;;4.80;2.20;;;17.20;99.90;;;;;;4973274;28;20285;-90
2023/07/13 02:57:51;;;;;;;5.83;2.80;;;17.20;99.90;;;;;;4973424;28;20183;-90
2023/07/13 03:00:17;;;;;;;5.23;2.63;;;17.10;99.90;;;;;;4974403;28;20180;-89
2023/07/13 03:02:43;;;;;;;6.03;4.40;;;17.10;99.90;;;;;;4973233;28;20577;-90
2023/07/13 03:05:12;;;;;;;4.30;2.77;;;17.10;99.90;;;;;;4974184;28;20252;-90
2023/07/13 03:07:39;;;;;;;5.80;4.03;;;17.10;99.90;;;;;;4974622;28;20270;-92
2023/07/13 03:10:09;;;;;;;3.33;3.00;;;17.10;99.90;;;;;;4975003;28;20506;-93
2023/07/13 03:12:34;;;;;;;4.80;3.63;;;17.00;99.90;;;;;;4974693;28;20567;-92
2023/07/13 03:15:00;;;;;;;4.50;2.37;;;17.00;99.90;;;;;;4978193;28;20449;-95
2023/07/13 03:17:25;;;;;;;4.33;2.90;;;17.10;99.90;;;;;;4977501;28;20722;-95
2023/07/13 03:19:51;;;;;;;3.13;2.40;;;17.00;99.90;;;;;;4976827;28;20177;-95
2023/07/13 03:22:18;;;;;;;4.80;3.07;;;17.00;99.90;;;;;;4977377;28;20585;-94
2023/07/13 03:24:44;;;;;;;4.00;3.43;;;17.00;99.90;;;;;;4977832;28;20961;-89
2023/07/13 03:27:09;;;;;;;4.43;2.80;;;17.00;99.90;;;;;;4977454;28;20498;-90
2023/07/13 03:29:35;;;;;;;5.40;3.07;;;17.00;99.90;;;;;;4977636;28;20417;-89
2023/07/13 03:32:00;;;;;;;5.17;2.70;;;17.00;99.90;;;;;;4976437;28;20181;-90
2023/07/13 03:34:26;;;;;;;4.90;3.33;;;16.90;99.90;;;;;;4976999;28;20179;-90
2023/07/13 03:36:55;;;;;;;3.20;2.70;;;17.00;99.90;;;;;;4977112;28;20236;-89
2023/07/13 03:39:20;;;;;;;5.87;3.03;;;16.90;99.90;;;;;;4977295;28;20174;-87
2023/07/13 03:41:46;;;;;;;3.77;2.73;;;16.90;99.90;;;;;;4977269;28;20426;-83
2023/07/13 03:44:11;;;;;;;4.40;3.30;;;16.90;99.90;;;;;;4977298;28;20175;-88
2023/07/13 03:46:37;;;;;;;6.33;3.77;;;16.90;99.90;;;;;;4977171;28;20211;-89
2023/07/13 03:49:04;;;;;;;5.27;3.17;;;16.90;99.90;;;;;;4976863;28;20175;-82
2023/07/13 03:51:30;;;;;;;4.00;3.40;;;16.90;99.90;;;;;;4977020;28;20186;-87
2023/07/13 03:53:56;;;;;;;5.70;2.90;;;16.80;99.90;;;;;;4976088;28;20423;-90
2023/07/13 03:56:22;;;;;;;7.80;3.10;;;16.80;99.90;;;;;;4976272;28;20313;-84
2023/07/13 03:58:49;;;;;;;5.63;3.67;;;16.80;99.90;;;;;;4978972;28;20181;-84
2023/07/13 04:01:16;;;;;;;6.80;4.37;;;16.80;99.90;;;;;;4983458;28;20549;-83
2023/07/13 04:03:42;;;;;;;5.07;3.30;;;16.80;99.90;;;;;;4977327;28;20417;-91
2023/07/13 04:06:14;;;;;;;7.90;3.50;;;16.80;99.90;;;;;;4979617;28;20418;-87
2023/07/13 04:08:41;;;;;;;4.20;3.30;;;16.80;99.90;;;;;;4977552;28;20416;-82
2023/07/13 04:11:07;;;;;;;6.03;2.57;;;16.70;99.90;;;;;;4976574;28;21077;-89
2023/07/13 04:13:32;;;;;;;5.17;2.97;;;16.70;99.90;;;;;;4976961;28;20519;-90
2023/07/13 04:15:58;;;;;;;7.43;3.53;;;16.80;99.90;;;;;;4975387;28;20476;-89
2023/07/13 04:18:23;;;;;;;5.63;3.83;;;16.80;99.90;;;;;;5008075;28;20210;-90
2023/07/13 04:20:49;;;;;;;5.30;3.70;;;16.70;99.90;;;;;;4976317;28;20709;-90
2023/07/13 04:23:19;;;;;;;9.13;3.90;;;16.70;99.90;;;;;;4976778;28;20182;-90
2023/07/13 04:25:49;;;;;;;6.13;3.67;;;16.80;99.90;;;;;;4975221;28;20425;-83
2023/07/13 04:28:15;;;;;;;10.57;3.30;;;16.90;99.90;;;;;;4975321;28;20430;-89
2023/07/13 04:30:41;;;;;;;9.70;3.70;;;16.90;99.90;;;;;;4975941;28;20435;-82
2023/07/13 04:33:08;;;;;;;5.00;3.73;;;16.90;99.90;;;;;;4974715;28;20516;-83
2023/07/13 04:35:34;;;;;;;5.30;3.50;;;17.00;99.90;;;;;;4975902;28;20192;-85
2023/07/13 04:38:00;;;;;;;5.03;3.67;;;17.00;99.90;;;;;;4975823;28;20948;-85
2023/07/13 04:40:27;;;;;;;5.73;4.20;;;17.10;99.90;;;;;;4975759;28;20421;-89
2023/07/13 04:42:52;;;;;;;5.73;4.00;;;17.10;99.90;;;;;;4975786;28;20189;-88
2023/07/13 04:45:18;;;;;;;4.10;3.57;;;17.20;99.90;;;;;;4975469;28;20414;-89
2023/07/13 04:47:43;;;;;;;9.90;4.20;;;17.20;99.90;;;;;;4974481;28;20187;-91
2023/07/13 04:50:10;;;;;;;6.23;4.10;;;17.30;99.90;;;;;;4975542;28;20181;-89
2023/07/13 04:52:36;;;;;;;5.77;3.93;;;17.30;99.90;;;;;;4975992;28;20247;-92
2023/07/13 04:55:02;;;;;;;7.93;4.43;;;17.40;99.90;;;;;;4975247;28;20431;-90
2023/07/13 04:57:28;;;;;;;7.40;3.63;;;17.30;99.90;;;;;;4975864;28;20233;-92
2023/07/13 04:59:53;;;;;;;5.37;3.00;;;17.40;99.90;;;;;;4976420;28;20591;-91
2023/07/13 05:02:20;;;;;;;7.63;3.90;;;17.40;99.90;;;;;;4976586;28;20181;-94
2023/07/13 05:04:47;;;;;;;5.40;3.27;;;17.40;99.90;;;;;;4976176;28;20620;-93
2023/07/13 05:07:13;;;;;;;5.60;3.90;;;17.40;99.90;;;;;;4976445;28;20423;-92
2023/07/13 05:09:39;;;;;;;7.60;3.83;;;17.50;99.90;;;;;;4976138;28;20409;-92
2023/07/13 05:12:06;;;;;;;5.13;3.63;;;17.50;99.90;;;;;;4976311;28;20264;-92
2023/07/13 05:14:32;;;;;;;5.93;3.67;;;17.50;99.90;;;;;;4976368;28;20410;-92
2023/07/13 05:16:57;;;;;;;8.40;4.07;;;17.60;99.90;;;;;;4975638;28;20978;-90
2023/07/13 05:19:23;;;;;;;4.27;3.87;;;17.60;99.90;;;;;;4975718;28;20183;-94
2023/07/13 05:21:48;;;;;;;4.60;3.47;;;17.60;99.90;;;;;;4975117;28;20246;-92
2023/07/13 05:24:14;;;;;;;5.23;3.77;;;17.70;99.90;;;;;;4976021;28;20179;-92
2023/07/13 05:26:39;;;;;;;4.90;3.57;;;17.70;99.90;;;;;;4975967;28;20173;-92
2023/07/13 05:29:04;;;;;;;6.10;3.43;;;17.90;99.90;;;;;;4976189;28;20185;-91
2023/07/13 05:31:30;;;;;;;11.60;3.90;;;17.90;99.90;;;;;;4975726;28;20260;-91
2023/07/13 05:33:55;;;;;;;10.10;2.67;;;18.00;99.90;;;;;;4975700;28;20228;-92
2023/07/13 05:36:21;;;;;;;5.63;3.57;;;18.10;99.90;;;;;;4975537;28;20246;-94
2023/07/13 05:38:46;;;;;;;4.87;2.50;;;18.20;99.90;;;;;;4975625;28;20172;-93
2023/07/13 05:41:12;;;;;;;8.70;3.50;;;18.40;99.90;;;;;;4975963;28;20185;-95
2023/07/13 05:43:37;;;;;;;6.37;2.17;;;18.60;99.90;;;;;;4975840;28;20195;-92
2023/07/13 05:46:03;;;;;;;5.33;1.77;;;18.90;99.90;;;;;;4974780;28;20200;-91
2023/07/13 05:48:28;;;;;;;3.17;1.30;;;19.20;99.90;;;;;;4975312;28;20635;-90
2023/07/13 05:50:54;;;;;;;6.13;2.33;;;19.50;99.90;;;;;;4975515;28;20208;-89
2023/07/13 05:53:19;;;;;;;8.67;1.60;;;19.60;99.90;;;;;;4975915;28;20168;-93
2023/07/13 05:55:47;;;;;;;8.23;2.30;;;19.90;99.90;;;;;;4975473;28;20196;-85
2023/07/13 05:58:13;;;;;;;7.90;2.03;;;20.00;99.90;;;;;;4974606;28;20275;-91
2023/07/13 06:00:39;;;;;;;4.87;1.90;;;20.10;39.10;;;;;;4974592;28;21064;-91
2023/07/13 06:03:06;;;;;;;7.30;2.43;;;20.20;1.40;;;;;;4974582;28;20920;-89
2023/07/13 06:05:33;;;;;;;6.97;2.00;;;20.30;1.40;;;;;;4974571;28;20412;-88
2023/07/13 06:07:59;;;;;;;6.00;1.53;;;20.40;1.00;;;;;;4975565;28;20407;-95
2023/07/13 06:10:24;;;;;;;6.67;2.10;;;20.50;1.00;;;;;;4973997;28;20846;-88
2023/07/13 06:12:50;;;;;;;4.90;2.17;;;20.70;1.00;;;;;;4973243;28;20210;-86
2023/07/13 06:15:15;;;;;;;6.53;2.13;;;20.80;1.00;;;;;;4974294;28;20170;-87
2023/07/13 06:17:41;;;;;;;8.33;2.10;;;20.90;1.00;;;;;;4974540;28;20168;-87
2023/07/13 06:20:07;;;;;;;4.67;1.70;;;20.90;99.90;;;;;;4973980;28;20173;-86
2023/07/13 06:22:32;;;;;;;6.90;1.40;;;20.90;1.00;;;;;;4974529;28;20599;-91
2023/07/13 06:24:58;;;;;;;6.97;1.27;;;21.10;1.00;;;;;;4974333;28;20450;-88
2023/07/13 06:27:23;;;;;;;7.03;1.77;;;21.10;1.00;;;;;;4974755;28;20194;-84
2023/07/13 06:29:49;;;;;;;9.00;1.50;;;21.30;1.00;;;;;;4975110;28;20215;-90
2023/07/13 06:32:14;;;;;;;12.13;2.10;;;21.50;99.90;;;;;;4975508;28;20222;-81
2023/07/13 06:34:40;;;;;;;5.30;1.67;;;21.70;99.90;;;;;;4975019;28;20186;-86
2023/07/13 06:37:06;;;;;;;6.23;1.57;;;21.90;99.90;;;;;;4975340;28;20297;-94
2023/07/13 06:39:32;;;;;;;5.60;1.23;;;22.20;1.00;;;;;;4974957;28;20186;-94
2023/07/13 06:41:57;;;;;;;4.10;1.00;;;22.40;8.20;;;;;;4974744;28;20183;-94
2023/07/13 06:44:23;;;;;;;3.90;0.97;;;22.60;99.90;;;;;;4976170;28;20425;-91
2023/07/13 06:46:48;;;;;;;8.93;1.47;;;22.70;99.90;;;;;;4975990;28;20286;-96
2023/07/13 06:49:13;;;;;;;5.47;1.20;;;22.70;1.00;;;;;;4978128;28;20513;-91
2023/07/13 06:51:39;;;;;;;8.60;1.50;;;22.60;99.90;;;;;;4980018;28;20174;-94
2023/07/13 06:54:04;;;;;;;8.50;2.00;;;22.70;1.00;;;;;;4979329;28;20210;-82
2023/07/13 06:56:30;;;;;;;5.20;1.87;;;22.80;99.90;;;;;;4978370;28;20302;-83
2023/07/13 06:58:55;;;;;;;8.00;1.67;;;23.00;99.90;;;;;;4978126;28;20189;-96
2023/07/13 07:01:21;;;;;;;4.23;1.50;;;23.10;94.90;;;;;;4980577;28;20193;-95
2023/07/13 07:03:47;;;;;;;5.77;0.80;;;23.20;1.00;;;;;;4979392;28;20650;-95
2023/07/13 07:06:25;;;;;;;4.30;1.30;;;23.10;1.00;;;;;;4978437;28;20232;-94
2023/07/13 07:08:52;;;;;;;2.17;1.17;;;22.90;99.90;;;;;;4979472;28;20771;-85
2023/07/13 07:11:25;;;;;;;7.13;1.20;;;22.80;1.00;;;;;;4979455;28;20465;-95
2023/07/13 07:13:52;;;;;;;9.53;1.20;;;22.80;20.30;;;;;;4979101;28;20421;-94
2023/07/13 07:16:19;;;;;;;5.37;1.67;;;22.70;99.90;;;;;;4979559;28;20514;-92
2023/07/13 07:18:45;;;;;;;6.73;1.60;;;22.70;99.90;;;;;;4979030;28;20423;-95
2023/07/13 07:21:11;;;;;;;4.73;1.07;;;22.60;1.00;;;;;;4978513;28;20517;-90
2023/07/13 07:23:36;;;;;;;8.63;1.93;;;22.70;1.00;;;;;;4978498;28;20455;-93
2023/07/13 07:26:03;;;;;;;5.60;1.67;;;22.80;99.90;;;;;;4978627;28;20188;-94
2023/07/13 07:28:28;;;;;;;6.70;1.60;;;23.00;99.90;;;;;;4978383;28;20183;-94
2023/07/13 07:30:58;;;;;;;5.20;1.43;;;23.20;99.90;;;;;;4977461;28;20430;-89
2023/07/13 07:33:24;;;;;;;6.10;1.30;;;23.50;99.90;;;;;;4976055;28;20176;-91
2023/07/13 07:35:51;;;;;;;7.33;1.40;;;23.90;1.00;;;;;;4977235;28;20474;-93
2023/07/13 07:38:16;;;;;;;8.03;1.87;;;24.30;1.00;;;;;;4977364;28;20435;-92
2023/07/13 07:40:42;;;;;;;6.60;1.43;;;24.70;1.00;;;;;;4977680;28;20423;-93
2023/07/13 07:43:09;;;;;;;5.63;1.00;;;25.00;1.00;;;;;;4977636;28;20169;-93
2023/07/13 07:45:34;;;;;;;5.10;1.40;;;25.60;99.90;;;;;;4977388;28;20511;-93
2023/07/13 07:48:00;;;;;;;4.03;1.40;;;26.20;99.90;;;;;;4977206;28;20454;-93
2023/07/13 07:50:26;;;;;;;4.53;0.70;;;26.90;99.90;;;;;;4977417;28;20234;-90
2023/07/13 07:52:53;;;;;;;4.10;1.30;;;27.30;99.90;;;;;;4977098;28;20196;-90
2023/07/13 07:55:18;;;;;;;4.50;1.20;;;27.50;98.40;;;;;;4977183;28;20420;-91
2023/07/13 07:57:44;;;;;;;5.23;0.90;;;27.60;61.10;;;;;;4976877;28;20428;-83
2023/07/13 08:00:10;;;;;;;7.30;1.83;;;27.40;38.00;;;;;;4976861;28;20174;-94
2023/07/13 08:02:35;;;;;;;6.40;1.47;;;27.10;30.20;;;;;;4976936;28;20230;-94
2023/07/13 08:05:01;;;;;;;8.47;1.20;;;26.60;28.60;;;;;;4976496;28;20503;-89
2023/07/13 08:07:26;;;;;;;4.37;1.40;;;26.10;37.80;;;;;;4976667;28;20179;-93
2023/07/13 08:09:55;;;;;;;2.67;0.67;;;25.50;56.90;;;;;;4976918;28;20212;-93
2023/07/13 08:12:20;;;;;;;8.20;1.40;;;25.10;96.20;;;;;;4977033;28;20220;-82
2023/07/13 08:14:53;;;;;;;9.90;2.17;;;25.00;99.90;;;;;;4977398;28;20426;-95
2023/07/13 08:17:19;;;;;;;5.10;1.23;;;25.40;99.90;;;;;;4976586;28;20816;-89
2023/07/13 08:19:45;;;;;;;3.33;1.07;;;26.00;99.90;;;;;;4977051;28;20411;-90
2023/07/13 08:22:10;;;;;;;2.90;0.80;;;26.60;99.90;;;;;;4978469;28;20427;-96
2023/07/13 08:24:36;;;;;;;4.70;0.80;;;27.20;99.90;;;;;;4976421;28;20176;-84
2023/07/13 08:27:01;;;;;;;1.90;0.77;;;27.70;72.10;;;;;;4975852;28;20176;-88
2023/07/13 08:29:26;;;;;;;5.77;0.93;;;28.30;39.10;;;;;;4976854;28;20177;-94
2023/07/13 08:31:52;;;;;;;4.70;1.07;;;28.80;14.80;;;;;;4979210;28;20184;-88
2023/07/13 08:34:20;;;;;;;4.87;1.10;;;29.20;3.00;;;;;;4968201;28;20554;-92
2023/07/13 08:36:46;;;;;;;3.23;0.87;;;29.10;1.00;;;;;;5006795;28;20643;-90
2023/07/13 08:39:11;;;;;;;4.83;1.63;;;29.20;1.00;;;;;;5006749;28;20499;-89
2023/07/13 08:41:37;;;;;;;3.67;1.00;;;29.20;1.00;;;;;;5006769;28;20199;-91
2023/07/13 08:44:05;;;;;;;5.17;1.50;;;29.30;1.00;;;;;;4975132;28;20204;-78
2023/07/13 08:46:40;;;;;;;4.03;1.07;;;29.40;1.00;;;;;;4975460;28;20578;-79
2023/07/13 08:49:19;;;;;;;6.23;0.90;;;29.40;1.00;;;;;;4974535;28;20631;-78
2023/07/13 08:51:49;;;;;;;3.53;0.90;;;29.30;1.00;;;;;;4975363;28;20426;-78
2023/07/13 08:54:32;;;;;;;5.27;0.97;;;29.10;1.00;;;;;;4975487;28;20801;-79
2023/07/13 08:57:02;;;;;;;8.17;1.13;;;28.60;1.00;;;;;;4975316;28;20475;-78
2023/07/13 08:59:32;;;;;;;4.73;1.27;;;29.00;1.00;;;;;;4974042;28;20937;-77
2023/07/13 09:02:22;;;;;;;7.37;1.33;;;29.60;1.00;;;;;;4974025;28;20431;-79
2023/07/13 09:05:04;;;;;;;5.00;1.30;;;29.90;1.00;;;;;;4974896;28;20411;-78
2023/07/13 09:07:52;;;;;;;5.97;1.13;;;29.40;1.00;;;;;;4975182;28;20815;-78
2023/07/13 09:10:21;;;;;;;4.53;1.27;;;29.00;1.00;;;;;;5006124;28;20914;-78
2023/07/13 09:13:28;;;;;;;6.13;1.40;;;29.30;1.00;;;;;;4974652;28;20489;-78
2023/07/13 09:15:54;;;;;;;4.00;1.10;;;29.30;1.00;;;;;;4974926;28;20539;-78
2023/07/13 09:18:32;;;;;;;3.17;1.03;;;29.50;1.00;;;;;;4973308;28;20547;-78
2023/07/13 09:21:05;;;;;;;1.77;0.63;;;30.00;1.00;;;;;;4973525;28;20180;-79
2023/07/13 09:23:31;;;;;;;1.90;0.57;;;30.40;1.00;;;;;;4974874;28;20506;-78
2023/07/13 09:26:10;;;;;;;4.40;0.83;;;30.80;1.00;;;;;;4974728;28;20487;-78
2023/07/13 09:28:41;;;;;;;4.07;1.20;;;31.40;1.00;;;;;;4974790;28;20168;-79
2023/07/13 09:31:14;;;;;;;3.10;1.10;;;32.00;1.00;;;;;;4974966;28;20407;-79
2023/07/13 09:33:39;;;;;;;2.90;0.90;;;32.40;1.00;;;;;;4974394;28;20492;-79
2023/07/13 09:36:23;;;;;;;5.93;1.20;;;31.90;1.00;;;;;;4974548;28;20460;-80
2023/07/13 09:39:02;;;;;;;4.43;1.30;;;31.40;1.00;;;;;;4974643;28;20637;-78
2023/07/13 09:42:01;;;;;;;4.27;1.07;;;31.10;1.00;;;;;;4974518;28;20411;-79
2023/07/13 09:44:33;;;;;;;5.30;1.53;;;31.00;1.00;;;;;;4981299;28;20424;-80
2023/07/13 09:46:59;;;;;;;3.60;1.63;;;30.50;1.00;;;;;;4972967;28;20436;-78
2023/07/13 09:49:35;;;;;;;3.53;1.20;;;30.10;1.00;;;;;;4973561;28;20423;-78
2023/07/13 09:52:04;;;;;;;4.23;2.03;;;29.90;1.00;;;;;;4974446;28;20779;-81
2023/07/13 09:54:34;;;;;;;4.80;1.53;;;29.60;1.00;;;;;;4964427;28;20408;-85
2023/07/13 09:57:00;;;;;;;4.00;1.43;;;29.00;1.00;;;;;;4973252;28;21063;-89
2023/07/13 09:59:36;;;;;;;7.23;1.80;;;28.60;1.00;;;;;;4973987;28;20778;-94
2023/07/13 10:02:02;;;;;;;2.43;1.10;;;28.30;1.00;;;;;;4974759;28;20418;-84
2023/07/13 10:04:33;;;;;;;5.27;1.83;;;28.50;1.00;;;;;;4973743;28;20424;-92
2023/07/13 10:07:12;;;;;;;5.17;1.40;;;28.80;1.00;;;;;;5005657;28;20315;-88
2023/07/13 10:09:38;;;;;;;3.23;0.80;;;29.50;1.00;;;;;;4972672;28;20424;-87
2023/07/13 10:12:13;;;;;;;4.00;0.80;;;30.20;1.00;;;;;;5005195;28;20470;-88
2023/07/13 10:14:41;;;;;;;6.50;1.73;;;31.20;1.00;;;;;;4973351;28;20168;-85
2023/07/13 10:17:15;;;;;;;3.53;1.20;;;31.80;1.00;;;;;;4972943;28;20519;-85
2023/07/13 10:19:45;;;;;;;6.97;1.57;;;32.70;1.00;;;;;;4972930;28;20407;-85
2023/07/13 10:22:29;;;;;;;2.10;0.93;;;33.10;1.00;;;;;;4973102;28;20431;-84
2023/07/13 10:24:55;;;;;;;7.07;1.27;;;33.40;1.00;;;;;;4976752;28;20982;-85
2023/07/13 10:27:33;;;;;;;2.87;0.90;;;33.60;1.00;;;;;;4977032;28;20419;-84
2023/07/13 10:30:01;;;;;;;2.37;0.90;;;33.60;1.00;;;;;;4977003;28;20664;-83
2023/07/13 10:32:27;;;;;;;2.70;1.00;;;33.70;1.00;;;;;;4976887;28;20412;-86
2023/07/13 10:34:55;;;;;;;3.40;1.20;;;33.80;1.00;;;;;;4976506;28;20795;-85
2023/07/13 10:37:29;;;;;;;4.73;0.83;;;34.00;1.00;;;;;;4976776;28;20215;-84
2023/07/13 10:39:57;;;;;;;3.17;0.90;;;33.40;1.00;;;;;;4976784;28;20919;-84
2023/07/13 10:42:38;;;;;;;5.13;1.33;;;32.60;1.00;;;;;;4976842;28;20844;-85
2023/07/13 10:45:21;;;;;;;4.20;1.17;;;32.00;1.00;;;;;;4976746;28;20419;-85
2023/07/13 10:47:50;;;;;;;3.33;2.00;;;31.00;1.00;;;;;;4976172;28;21264;-86
2023/07/13 10:50:21;;;;;;;4.43;1.20;;;30.00;1.00;;;;;;4976574;28;20446;-83
2023/07/13 10:52:51;;;;;;;3.17;1.07;;;29.20;1.00;;;;;;4976369;28;20419;-83
2023/07/13 10:55:50;;;;;;;3.10;1.33;;;28.50;1.00;;;;;;4976234;28;20419;-83
2023/07/13 10:58:22;;;;;;;3.00;0.90;;;28.40;1.00;;;;;;4990205;28;20439;-86
2023/07/13 11:01:03;;;;;;;3.00;0.90;;;28.60;1.00;;;;;;4973951;28;20420;-85
2023/07/13 11:03:30;;;;;;;3.20;1.20;;;29.30;1.00;;;;;;4974931;28;20423;-86
2023/07/13 11:06:22;;;;;;;2.83;1.03;;;30.40;1.00;;;;;;4976903;28;20416;-86
2023/07/13 11:08:48;;;;;;;2.23;0.80;;;31.50;1.00;;;;;;5038024;23;20464;-84
2023/07/13 11:11:35;;;;;;;1.90;0.87;;;32.30;1.00;;;;;;4957656;28;20550;-81
2023/07/13 11:14:25;;;;;;;2.10;0.80;;;32.40;1.00;;;;;;4957180;28;20439;-80
2023/07/13 11:16:51;;;;;;;1.83;0.77;;;32.40;1.00;;;;;;4957191;28;20507;-80
2023/07/13 11:19:16;;;;;;;4.60;1.03;;;32.80;1.00;;;;;;4957191;28;20412;-80
2023/07/13 11:22:09;;;;;;;2.27;0.60;;;33.10;1.00;;;;;;4957269;28;20852;-80
2023/07/13 11:24:55;;;;;;;6.07;2.03;;;32.70;1.00;;;;;;4957169;28;20181;-81
2023/07/13 11:27:45;;;;;;;2.57;0.80;;;31.70;1.00;;;;;;4957046;28;20425;-80
2023/07/13 11:30:29;;;;;;;2.20;0.80;;;30.80;1.00;;;;;;4955882;28;20424;-79
2023/07/13 11:33:12;;;;;;;3.00;1.30;;;30.50;1.00;;;;;;4963000;28;20430;-81
2023/07/13 11:35:55;;;;;;;2.53;1.03;;;30.40;1.00;;;;;;4993923;28;20462;-82
2023/07/13 11:38:29;;;;;;;2.40;0.77;;;30.60;1.00;;;;;;4994973;28;20419;-83
2023/07/13 11:40:58;;;;;;;3.20;0.83;;;31.20;1.00;;;;;;4995390;28;20399;-82
2023/07/13 11:43:24;;;;;;;3.87;0.77;;;31.90;1.00;;;;;;4995748;28;20771;-84
2023/07/13 11:45:50;;;;;;;1.67;0.87;;;32.60;1.00;;;;;;4995359;28;20498;-77
2023/07/13 11:48:22;;;;;;;4.13;0.87;;;32.90;1.00;;;;;;4995782;28;20441;-77
2023/07/13 11:50:55;;;;;;;3.57;1.00;;;33.00;1.00;;;;;;4995650;28;20940;-79
2023/07/13 11:53:21;;;;;;;1.27;0.33;;;33.50;1.00;;;;;;4995952;28;20899;-78
2023/07/13 11:55:47;;;;;;;2.30;0.70;;;33.70;1.00;;;;;;4995756;28;20493;-76
2023/07/13 11:58:20;;;;;;;3.17;0.80;;;33.60;1.00;;;;;;4995845;28;20419;-77
2023/07/13 12:00:47;;;;;;;2.87;0.80;;;33.80;1.00;;;;;;4995776;28;20406;-78
2023/07/13 12:03:17;;;;;;;3.23;0.87;;;34.00;1.00;;;;;;4995476;28;20754;-77
2023/07/13 12:06:02;;;;;;;2.57;0.80;;;34.50;1.00;;;;;;4995754;28;20459;-78
2023/07/13 12:08:28;;;;;;;1.80;0.60;;;34.80;1.00;;;;;;4995488;28;20413;-77
2023/07/13 12:10:59;;;;;;;3.10;0.70;;;34.60;1.00;;;;;;4995466;28;20538;-78
2023/07/13 12:13:28;;;;;;;2.83;0.67;;;34.60;1.00;;;;;;4995556;28;20419;-78
2023/07/13 12:15:56;;;;;;;1.93;0.70;;;34.40;1.00;;;;;;4995384;28;20872;-79
2023/07/13 12:18:23;;;;;;;2.73;1.10;;;33.90;1.00;;;;;;4995059;28;20411;-79
2023/07/13 12:20:52;;;;;;;3.63;0.87;;;33.70;1.00;;;;;;4995496;28;20744;-77
2023/07/13 12:23:30;;;;;;;1.13;0.40;;;33.90;1.00;;;;;;4995307;28;20459;-77
2023/07/13 12:25:57;;;;;;;1.20;0.37;;;33.30;1.00;;;;;;4995343;28;20414;-78
2023/07/13 12:28:45;;;;;;;2.60;0.37;;;32.70;1.00;;;;;;4995245;28;20733;-78
2023/07/13 12:31:42;;;;;;;3.40;0.83;;;32.00;1.00;;;;;;4995328;28;20411;-76
2023/07/13 12:34:14;;;;;;;2.83;0.57;;;31.10;1.00;;;;;;4997535;28;20426;-84
2023/07/13 12:36:58;;;;;;;2.40;0.77;;;30.00;1.00;;;;;;4986595;28;20470;-84
2023/07/13 12:39:44;;;;;;;5.93;2.93;;;28.60;1.00;;;;;;4994528;28;20421;-85
2023/07/13 12:42:28;;;;;;;5.37;0.83;;;27.40;1.00;;;;;;4994692;28;20414;-86
2023/07/13 12:45:29;;;;;;;3.13;0.67;;;26.40;1.00;;;;;;4991791;28;20954;-84
2023/07/13 12:48:11;;;;;;;2.50;0.60;;;25.80;1.00;;;;;;5002968;28;20513;-77
2023/07/13 12:50:43;;;;;;;4.47;1.00;;;25.10;1.00;;;;;;4991575;28;20449;-77
2023/07/13 12:53:14;;;;;;;5.63;1.27;;;24.60;59.90;;;;;;4973955;28;20405;-77
2023/07/13 12:55:50;;;;;;;2.80;1.20;;;24.20;99.90;;;;;;4973867;28;20459;-76
2023/07/13 12:58:38;;;;;;;2.53;0.60;;;23.90;1.00;;;;;;4967749;28;20752;-76
2023/07/13 13:01:05;;;;;;;2.17;0.83;;;23.60;1.00;;;;;;4973125;28;20786;-78